sensor_id;sensor_type;location;lat;lon;timestamp;temperature;humidity
3086;DHT22;52812;48.960;9.108;2023-01-10T00:01:57;5.30;99.90
3086;DHT22;52812;48.960;9.108;2023-01-10T00:04:23;5.30;99.90
3086;DHT22;52812;48.960;9.108;2023-01-10T00:06:51;5.30;99.90
3086;DHT22;52812;48.960;9.108;2023-01-10T00:09:17;5.30;99.90
3086;DHT22;52812;48.960;9.108;2023-01-10T00:11:42;5.30;99.90
3086;DHT22;52812;48.960;9.108;2023-01-10T00:14:27;5.30;99.90
3086;DHT22;52812;48.960;9.108;2023-01-10T00:16:53;5.20;99.90
3086;DHT22;52812;48.960;9.108;2023-01-10T00:19:19;5.20;99.90
3086;DHT22;52812;48.960;9.108;2023-01-10T00:21:45;5.30;99.90
3086;DHT22;52812;48.960;9.108;2023-01-10T00:24:11;5.20;99.90
3086;DHT22;52812;48.960;9.108;2023-01-10T00:26:48;5.20;99.90
3086;DHT22;52812;48.960;9.108;2023-01-10T00:29:24;5.30;99.90
3086;DHT22;52812;48.960;9.108;2023-01-10T00:31:52;5.30;99.90
3086;DHT22;52812;48.960;9.108;2023-01-10T00:34:18;5.30;99.90
3086;DHT22;52812;48.960;9.108;2023-01-10T00:36:45;5.30;99.90
3086;DHT22;52812;48.960;9.108;2023-01-10T00:39:12;5.30;99.90
3086;DHT22;52812;48.960;9.108;2023-01-10T00:41:39;5.30;99.90
3086;DHT22;52812;48.960;9.108;2023-01-10T00:44:23;5.30;99.90
3086;DHT22;52812;48.960;9.108;2023-01-10T00:46:50;5.30;99.90
3086;DHT22;52812;48.960;9.108;2023-01-10T00:49:16;5.30;99.90
3086;DHT22;52812;48.960;9.108;2023-01-10T00:51:42;5.30;99.90
3086;DHT22;52812;48.960;9.108;2023-01-10T00:54:09;5.30;99.90
3086;DHT22;52812;48.960;9.108;2023-01-10T00:56:35;5.30;99.90
3086;DHT22;52812;48.960;9.108;2023-01-10T00:59:01;5.30;99.90
3086;DHT22;52812;48.960;9.108;2023-01-10T01:01:26;5.20;99.90
3086;DHT22;52812;48.960;9.108;2023-01-10T01:03:52;5.20;99.90
3086;DHT22;52812;48.960;9.108;2023-01-10T01:06:18;5.20;99.90
3086;DHT22;52812;48.960;9.108;2023-01-10T01:08:43;5.20;99.90
3086;DHT22;52812;48.960;9.108;2023-01-10T01:11:09;5.20;99.90
3086;DHT22;52812;48.960;9.108;2023-01-10T01:13:35;5.20;99.90
3086;DHT22;52812;48.960;9.108;2023-01-10T01:16:01;5.20;99.90
3086;DHT22;52812;48.960;9.108;2023-01-10T01:18:27;5.20;99.90
3086;DHT22;52812;48.960;9.108;2023-01-10T01:20:55;5.20;99.90
3086;DHT22;52812;48.960;9.108;2023-01-10T01:23:22;5.30;99.90
3086;DHT22;52812;48.960;9.108;2023-01-10T01:25:52;5.30;99.90
3086;DHT22;52812;48.960;9.108;2023-01-10T01:28:18;5.30;99.90
3086;DHT22;52812;48.960;9.108;2023-01-10T01:30:44;5.30;99.90
3086;DHT22;52812;48.960;9.108;2023-01-10T01:33:09;5.30;99.90
3086;DHT22;52812;48.960;9.108;2023-01-10T01:35:35;5.40;99.90
3086;DHT22;52812;48.960;9.108;2023-01-10T01:38:01;5.40;99.90
3086;DHT22;52812;48.960;9.108;2023-01-10T01:40:27;5.40;99.90
3086;DHT22;52812;48.960;9.108;2023-01-10T01:42:52;5.40;99.90
3086;DHT22;52812;48.960;9.108;2023-01-10T01:48:15;5.40;99.90
3086;DHT22;52812;48.960;9.108;2023-01-10T01:51:05;5.40;99.90
3086;DHT22;52812;48.960;9.108;2023-01-10T01:53:39;5.40;99.90
3086;DHT22;52812;48.960;9.108;2023-01-10T01:56:15;5.40;99.90
3086;DHT22;52812;48.960;9.108;2023-01-10T02:01:16;5.40;99.90
3086;DHT22;52812;48.960;9.108;2023-01-10T02:03:44;5.40;99.90
3086;DHT22;52812;48.960;9.108;2023-01-10T02:06:12;5.30;99.90
3086;DHT22;52812;48.960;9.108;2023-01-10T02:08:44;5.30;99.90
3086;DHT22;52812;48.960;9.108;2023-01-10T02:11:11;5.20;99.90
3086;DHT22;52812;48.960;9.108;2023-01-10T02:13:40;5.20;99.90
3086;DHT22;52812;48.960;9.108;2023-01-10T02:16:07;5.20;99.90
3086;DHT22;52812;48.960;9.108;2023-01-10T02:18:34;5.20;99.90
3086;DHT22;52812;48.960;9.108;2023-01-10T02:27:16;5.10;99.90
3086;DHT22;52812;48.960;9.108;2023-01-10T02:32:39;5.10;99.90
3086;DHT22;52812;48.960;9.108;2023-01-10T02:35:33;5.10;99.90
3086;DHT22;52812;48.960;9.108;2023-01-10T02:41:52;5.10;99.90
3086;DHT22;52812;48.960;9.108;2023-01-10T02:44:23;5.10;99.90
3086;DHT22;52812;48.960;9.108;2023-01-10T02:46:52;5.10;99.90
3086;DHT22;52812;48.960;9.108;2023-01-10T02:49:18;5.10;99.90
3086;DHT22;52812;48.960;9.108;2023-01-10T02:51:44;5.00;99.90
3086;DHT22;52812;48.960;9.108;2023-01-10T02:54:16;5.00;99.90
3086;DHT22;52812;48.960;9.108;2023-01-10T03:10:21;5.00;99.90
3086;DHT22;52812;48.960;9.108;2023-01-10T03:15:39;5.00;99.90
3086;DHT22;52812;48.960;9.108;2023-01-10T03:18:09;4.90;99.90
3086;DHT22;52812;48.960;9.108;2023-01-10T03:20:38;4.90;99.90
3086;DHT22;52812;48.960;9.108;2023-01-10T03:23:05;4.90;99.90
3086;DHT22;52812;48.960;9.108;2023-01-10T03:25:37;4.90;99.90
3086;DHT22;52812;48.960;9.108;2023-01-10T03:28:23;4.90;99.90
3086;DHT22;52812;48.960;9.108;2023-01-10T03:30:51;4.80;99.90
3086;DHT22;52812;48.960;9.108;2023-01-10T03:33:24;4.80;99.90
3086;DHT22;52812;48.960;9.108;2023-01-10T03:38:42;4.80;99.90
3086;DHT22;52812;48.960;9.108;2023-01-10T03:43:56;4.70;99.90
3086;DHT22;52812;48.960;9.108;2023-01-10T03:46:50;4.70;99.90
3086;DHT22;52812;48.960;9.108;2023-01-10T03:49:18;4.70;99.90
3086;DHT22;52812;48.960;9.108;2023-01-10T03:51:45;4.70;99.90
3086;DHT22;52812;48.960;9.108;2023-01-10T03:54:11;4.60;99.90
3086;DHT22;52812;48.960;9.108;2023-01-10T03:56:50;4.60;99.90
3086;DHT22;52812;48.960;9.108;2023-01-10T03:59:19;4.60;99.90
3086;DHT22;52812;48.960;9.108;2023-01-10T04:01:46;4.50;99.90
3086;DHT22;52812;48.960;9.108;2023-01-10T04:04:12;4.40;99.90
3086;DHT22;52812;48.960;9.108;2023-01-10T04:06:37;4.40;99.90
3086;DHT22;52812;48.960;9.108;2023-01-10T04:09:03;4.30;99.90
3086;DHT22;52812;48.960;9.108;2023-01-10T04:11:29;4.30;99.90
3086;DHT22;52812;48.960;9.108;2023-01-10T04:13:54;4.20;99.90
3086;DHT22;52812;48.960;9.108;2023-01-10T04:16:20;4.20;99.90
3086;DHT22;52812;48.960;9.108;2023-01-10T04:18:45;4.20;99.90
3086;DHT22;52812;48.960;9.108;2023-01-10T04:21:11;4.20;99.90
3086;DHT22;52812;48.960;9.108;2023-01-10T04:23:37;4.20;99.90
3086;DHT22;52812;48.960;9.108;2023-01-10T04:26:02;4.10;99.90
3086;DHT22;52812;48.960;9.108;2023-01-10T04:28:28;4.10;99.90
3086;DHT22;52812;48.960;9.108;2023-01-10T04:30:54;4.10;99.90
3086;DHT22;52812;48.960;9.108;2023-01-10T04:33:19;4.00;99.90
3086;DHT22;52812;48.960;9.108;2023-01-10T04:35:49;4.00;99.90
3086;DHT22;52812;48.960;9.108;2023-01-10T04:38:15;3.90;99.90
3086;DHT22;52812;48.960;9.108;2023-01-10T04:40:42;4.00;99.90
3086;DHT22;52812;48.960;9.108;2023-01-10T04:43:08;4.00;99.90
3086;DHT22;52812;48.960;9.108;2023-01-10T04:45:34;4.00;99.90
3086;DHT22;52812;48.960;9.108;2023-01-10T04:47:59;4.00;99.90
3086;DHT22;52812;48.960;9.108;2023-01-10T04:50:26;4.10;99.90
3086;DHT22;52812;48.960;9.108;2023-01-10T04:52:52;4.10;99.90
3086;DHT22;52812;48.960;9.108;2023-01-10T04:55:17;4.20;99.90
3086;DHT22;52812;48.960;9.108;2023-01-10T04:57:43;4.20;99.90
3086;DHT22;52812;48.960;9.108;2023-01-10T05:00:10;4.30;99.90
3086;DHT22;52812;48.960;9.108;2023-01-10T05:02:36;4.20;99.90
3086;DHT22;52812;48.960;9.108;2023-01-10T05:05:11;4.20;99.90
3086;DHT22;52812;48.960;9.108;2023-01-10T05:07:37;4.20;99.90
3086;DHT22;52812;48.960;9.108;2023-01-10T05:10:04;4.20;99.90
3086;DHT22;52812;48.960;9.108;2023-01-10T05:12:29;4.10;99.90
3086;DHT22;52812;48.960;9.108;2023-01-10T05:14:55;4.10;99.90
3086;DHT22;52812;48.960;9.108;2023-01-10T05:17:20;4.10;99.90
3086;DHT22;52812;48.960;9.108;2023-01-10T05:19:46;4.20;99.90
3086;DHT22;52812;48.960;9.108;2023-01-10T05:22:12;4.30;99.90
3086;DHT22;52812;48.960;9.108;2023-01-10T05:24:37;4.30;99.90
3086;DHT22;52812;48.960;9.108;2023-01-10T05:27:03;4.30;99.90
3086;DHT22;52812;48.960;9.108;2023-01-10T05:29:29;4.40;99.90
3086;DHT22;52812;48.960;9.108;2023-01-10T05:31:55;4.40;99.90
3086;DHT22;52812;48.960;9.108;2023-01-10T05:34:20;4.50;99.90
3086;DHT22;52812;48.960;9.108;2023-01-10T05:36:46;4.50;99.90
3086;DHT22;52812;48.960;9.108;2023-01-10T05:39:11;4.60;99.90
3086;DHT22;52812;48.960;9.108;2023-01-10T05:41:38;4.60;99.90
3086;DHT22;52812;48.960;9.108;2023-01-10T05:44:05;4.60;99.90
3086;DHT22;52812;48.960;9.108;2023-01-10T05:46:31;4.60;99.90
3086;DHT22;52812;48.960;9.108;2023-01-10T05:48:57;4.60;99.90
3086;DHT22;52812;48.960;9.108;2023-01-10T05:51:22;4.60;99.90
3086;DHT22;52812;48.960;9.108;2023-01-10T05:53:48;4.60;99.90
3086;DHT22;52812;48.960;9.108;2023-01-10T05:56:14;4.60;99.90
3086;DHT22;52812;48.960;9.108;2023-01-10T05:58:39;4.70;99.90
3086;DHT22;52812;48.960;9.108;2023-01-10T06:01:05;4.70;99.90
3086;DHT22;52812;48.960;9.108;2023-01-10T06:03:31;4.70;99.90
3086;DHT22;52812;48.960;9.108;2023-01-10T06:05:57;4.70;99.90
3086;DHT22;52812;48.960;9.108;2023-01-10T06:08:23;4.70;99.90
3086;DHT22;52812;48.960;9.108;2023-01-10T06:10:49;4.70;99.90
3086;DHT22;52812;48.960;9.108;2023-01-10T06:13:15;4.60;99.90
3086;DHT22;52812;48.960;9.108;2023-01-10T06:15:41;4.70;99.90
3086;DHT22;52812;48.960;9.108;2023-01-10T06:18:07;4.70;99.90
3086;DHT22;52812;48.960;9.108;2023-01-10T06:20:33;4.80;99.90
3086;DHT22;52812;48.960;9.108;2023-01-10T06:22:59;4.70;99.90
3086;DHT22;52812;48.960;9.108;2023-01-10T06:25:32;4.70;99.90
3086;DHT22;52812;48.960;9.108;2023-01-10T06:27:58;4.60;99.90
3086;DHT22;52812;48.960;9.108;2023-01-10T06:30:24;4.70;99.90
3086;DHT22;52812;48.960;9.108;2023-01-10T06:32:49;4.60;99.90
3086;DHT22;52812;48.960;9.108;2023-01-10T06:35:15;4.60;99.90
3086;DHT22;52812;48.960;9.108;2023-01-10T06:37:43;4.60;99.90
3086;DHT22;52812;48.960;9.108;2023-01-10T06:40:09;4.60;99.90
3086;DHT22;52812;48.960;9.108;2023-01-10T06:42:35;4.60;99.90
3086;DHT22;52812;48.960;9.108;2023-01-10T06:45:00;4.70;99.90
3086;DHT22;52812;48.960;9.108;2023-01-10T06:47:26;4.70;99.90
3086;DHT22;52812;48.960;9.108;2023-01-10T06:49:52;4.60;99.90
3086;DHT22;52812;48.960;9.108;2023-01-10T06:52:17;4.50;99.90
3086;DHT22;52812;48.960;9.108;2023-01-10T06:54:43;4.50;99.90
3086;DHT22;52812;48.960;9.108;2023-01-10T06:57:09;4.60;99.90
3086;DHT22;52812;48.960;9.108;2023-01-10T06:59:34;4.60;99.90
3086;DHT22;52812;48.960;9.108;2023-01-10T07:02:00;4.70;99.90
3086;DHT22;52812;48.960;9.108;2023-01-10T07:04:26;4.70;99.90
3086;DHT22;52812;48.960;9.108;2023-01-10T07:06:52;4.70;99.90
3086;DHT22;52812;48.960;9.108;2023-01-10T07:09:18;4.70;99.90
3086;DHT22;52812;48.960;9.108;2023-01-10T07:11:43;4.70;99.90
3086;DHT22;52812;48.960;9.108;2023-01-10T07:14:09;4.70;99.90
3086;DHT22;52812;48.960;9.108;2023-01-10T07:16:35;4.70;99.90
3086;DHT22;52812;48.960;9.108;2023-01-10T07:19:00;4.70;99.90
3086;DHT22;52812;48.960;9.108;2023-01-10T07:21:27;4.70;99.90
3086;DHT22;52812;48.960;9.108;2023-01-10T07:23:52;4.80;99.90
3086;DHT22;52812;48.960;9.108;2023-01-10T07:26:19;4.80;99.90
3086;DHT22;52812;48.960;9.108;2023-01-10T07:28:48;4.80;99.90
3086;DHT22;52812;48.960;9.108;2023-01-10T07:31:18;4.80;99.90
3086;DHT22;52812;48.960;9.108;2023-01-10T07:33:44;4.80;99.90
3086;DHT22;52812;48.960;9.108;2023-01-10T07:36:10;4.70;99.90
3086;DHT22;52812;48.960;9.108;2023-01-10T07:38:36;4.70;99.90
3086;DHT22;52812;48.960;9.108;2023-01-10T07:41:02;4.70;99.90
3086;DHT22;52812;48.960;9.108;2023-01-10T07:43:28;4.70;99.90
3086;DHT22;52812;48.960;9.108;2023-01-10T07:45:57;4.80;99.90
3086;DHT22;52812;48.960;9.108;2023-01-10T07:48:27;4.80;99.90
3086;DHT22;52812;48.960;9.108;2023-01-10T07:50:59;4.80;99.90
3086;DHT22;52812;48.960;9.108;2023-01-10T07:53:26;4.80;99.90
3086;DHT22;52812;48.960;9.108;2023-01-10T07:55:53;4.80;99.90
3086;DHT22;52812;48.960;9.108;2023-01-10T07:58:19;4.80;99.90
3086;DHT22;52812;48.960;9.108;2023-01-10T08:00:45;4.90;99.90
3086;DHT22;52812;48.960;9.108;2023-01-10T08:03:11;5.00;99.90
3086;DHT22;52812;48.960;9.108;2023-01-10T08:05:38;5.00;99.90
3086;DHT22;52812;48.960;9.108;2023-01-10T08:08:05;5.00;99.90
3086;DHT22;52812;48.960;9.108;2023-01-10T08:10:35;5.00;99.90
3086;DHT22;52812;48.960;9.108;2023-01-10T08:13:01;5.10;99.90
3086;DHT22;52812;48.960;9.108;2023-01-10T08:15:27;5.10;99.90
3086;DHT22;52812;48.960;9.108;2023-01-10T08:17:53;5.10;99.90
3086;DHT22;52812;48.960;9.108;2023-01-10T08:20:19;5.10;99.90
3086;DHT22;52812;48.960;9.108;2023-01-10T08:22:44;5.20;99.90
3086;DHT22;52812;48.960;9.108;2023-01-10T08:25:11;5.20;99.90
3086;DHT22;52812;48.960;9.108;2023-01-10T08:27:37;5.20;99.90
3086;DHT22;52812;48.960;9.108;2023-01-10T08:30:03;5.30;99.90
3086;DHT22;52812;48.960;9.108;2023-01-10T08:32:30;5.30;99.90
3086;DHT22;52812;48.960;9.108;2023-01-10T08:34:55;5.30;99.90
3086;DHT22;52812;48.960;9.108;2023-01-10T08:37:21;5.40;99.90
3086;DHT22;52812;48.960;9.108;2023-01-10T08:39:47;5.40;99.90
3086;DHT22;52812;48.960;9.108;2023-01-10T08:42:13;5.50;99.90
3086;DHT22;52812;48.960;9.108;2023-01-10T08:44:40;5.50;99.90
3086;DHT22;52812;48.960;9.108;2023-01-10T08:47:06;5.50;99.90
3086;DHT22;52812;48.960;9.108;2023-01-10T08:49:31;5.50;99.90
3086;DHT22;52812;48.960;9.108;2023-01-10T08:51:57;5.50;99.90
3086;DHT22;52812;48.960;9.108;2023-01-10T08:54:23;5.50;99.90
3086;DHT22;52812;48.960;9.108;2023-01-10T08:56:49;5.50;99.90
3086;DHT22;52812;48.960;9.108;2023-01-10T08:59:15;5.50;99.90
3086;DHT22;52812;48.960;9.108;2023-01-10T09:01:40;5.50;99.90
3086;DHT22;52812;48.960;9.108;2023-01-10T09:04:06;5.50;99.90
3086;DHT22;52812;48.960;9.108;2023-01-10T09:06:32;5.50;99.90
3086;DHT22;52812;48.960;9.108;2023-01-10T09:08:57;5.50;99.90
3086;DHT22;52812;48.960;9.108;2023-01-10T09:11:23;5.60;99.90
3086;DHT22;52812;48.960;9.108;2023-01-10T09:13:49;5.60;99.90
3086;DHT22;52812;48.960;9.108;2023-01-10T09:16:16;5.70;99.90
3086;DHT22;52812;48.960;9.108;2023-01-10T09:18:42;5.70;99.90
3086;DHT22;52812;48.960;9.108;2023-01-10T09:21:07;5.80;99.90
3086;DHT22;52812;48.960;9.108;2023-01-10T09:23:33;5.80;99.90
3086;DHT22;52812;48.960;9.108;2023-01-10T09:25:59;5.80;99.90
3086;DHT22;52812;48.960;9.108;2023-01-10T09:28:25;5.80;99.90
3086;DHT22;52812;48.960;9.108;2023-01-10T09:31:06;5.80;99.90
3086;DHT22;52812;48.960;9.108;2023-01-10T09:33:33;5.70;99.90
3086;DHT22;52812;48.960;9.108;2023-01-10T09:36:00;5.70;99.90
3086;DHT22;52812;48.960;9.108;2023-01-10T09:38:26;5.70;99.90
3086;DHT22;52812;48.960;9.108;2023-01-10T09:41:02;5.80;99.90
3086;DHT22;52812;48.960;9.108;2023-01-10T09:51:52;6.10;99.90
3086;DHT22;52812;48.960;9.108;2023-01-10T09:54:27;6.10;99.90
3086;DHT22;52812;48.960;9.108;2023-01-10T09:56:54;6.10;99.90
3086;DHT22;52812;48.960;9.108;2023-01-10T09:59:38;6.20;99.90
3086;DHT22;52812;48.960;9.108;2023-01-10T10:02:31;6.20;99.90
3086;DHT22;52812;48.960;9.108;2023-01-10T10:05:12;6.20;99.90
3086;DHT22;52812;48.960;9.108;2023-01-10T10:07:41;6.30;99.90
3086;DHT22;52812;48.960;9.108;2023-01-10T10:10:18;6.30;99.90
3086;DHT22;52812;48.960;9.108;2023-01-10T10:26:32;6.40;99.90
3086;DHT22;52812;48.960;9.108;2023-01-10T10:37:37;6.40;99.90
3086;DHT22;52812;48.960;9.108;2023-01-10T10:40:22;6.40;99.90
3086;DHT22;52812;48.960;9.108;2023-01-10T10:42:52;6.40;99.90
3086;DHT22;52812;48.960;9.108;2023-01-10T10:48:24;6.50;99.90
3086;DHT22;52812;48.960;9.108;2023-01-10T10:51:03;6.60;99.90
3086;DHT22;52812;48.960;9.108;2023-01-10T10:53:33;6.60;99.90
3086;DHT22;52812;48.960;9.108;2023-01-10T10:56:00;6.60;99.90
3086;DHT22;52812;48.960;9.108;2023-01-10T10:58:27;6.70;99.90
3086;DHT22;52812;48.960;9.108;2023-01-10T11:00:55;6.80;99.90
3086;DHT22;52812;48.960;9.108;2023-01-10T11:06:09;7.10;99.90
3086;DHT22;52812;48.960;9.108;2023-01-10T11:08:40;7.40;99.90
3086;DHT22;52812;48.960;9.108;2023-01-10T11:11:22;7.60;99.90
3086;DHT22;52812;48.960;9.108;2023-01-10T11:13:58;7.70;99.90
3086;DHT22;52812;48.960;9.108;2023-01-10T11:16:33;7.80;99.90
3086;DHT22;52812;48.960;9.108;2023-01-10T11:19:20;7.90;99.90
3086;DHT22;52812;48.960;9.108;2023-01-10T11:24:33;8.10;99.90
3086;DHT22;52812;48.960;9.108;2023-01-10T11:27:24;8.00;99.90
3086;DHT22;52812;48.960;9.108;2023-01-10T11:29:54;7.90;99.90
3086;DHT22;52812;48.960;9.108;2023-01-10T11:32:30;7.90;99.90
3086;DHT22;52812;48.960;9.108;2023-01-10T11:35:05;7.90;99.90
3086;DHT22;52812;48.960;9.108;2023-01-10T11:37:34;7.80;99.90
3086;DHT22;52812;48.960;9.108;2023-01-10T11:42:41;8.10;99.90
3086;DHT22;52812;48.960;9.108;2023-01-10T11:47:47;8.50;99.90
3086;DHT22;52812;48.960;9.108;2023-01-10T11:50:29;8.60;99.90
3086;DHT22;52812;48.960;9.108;2023-01-10T11:52:56;8.80;99.90
3086;DHT22;52812;48.960;9.108;2023-01-10T11:55:25;8.80;99.90
3086;DHT22;52812;48.960;9.108;2023-01-10T12:00:31;8.50;99.90
3086;DHT22;52812;48.960;9.108;2023-01-10T12:02:58;8.50;99.90
3086;DHT22;52812;48.960;9.108;2023-01-10T12:05:24;8.50;99.90
3086;DHT22;52812;48.960;9.108;2023-01-10T12:08:03;8.40;99.90
3086;DHT22;52812;48.960;9.108;2023-01-10T12:10:35;8.30;99.90
3086;DHT22;52812;48.960;9.108;2023-01-10T12:13:13;8.30;99.90
3086;DHT22;52812;48.960;9.108;2023-01-10T12:15:39;8.00;99.90
3086;DHT22;52812;48.960;9.108;2023-01-10T12:18:06;7.80;99.90
3086;DHT22;52812;48.960;9.108;2023-01-10T12:20:35;7.70;99.90
3086;DHT22;52812;48.960;9.108;2023-01-10T12:23:06;7.80;99.90
3086;DHT22;52812;48.960;9.108;2023-01-10T12:25:38;7.80;99.90
3086;DHT22;52812;48.960;9.108;2023-01-10T12:28:27;7.70;99.90
3086;DHT22;52812;48.960;9.108;2023-01-10T12:30:57;7.80;99.90
3086;DHT22;52812;48.960;9.108;2023-01-10T12:33:32;7.70;99.90
3086;DHT22;52812;48.960;9.108;2023-01-10T12:36:27;7.70;99.90
3086;DHT22;52812;48.960;9.108;2023-01-10T12:38:48;7.90;99.90
3086;DHT22;52812;48.960;9.108;2023-01-10T12:45:02;7.80;99.90
3086;DHT22;52812;48.960;9.108;2023-01-10T12:55:23;7.40;99.90
3086;DHT22;52812;48.960;9.108;2023-01-10T12:57:53;7.40;99.90
3086;DHT22;52812;48.960;9.108;2023-01-10T13:00:35;7.40;99.90
3086;DHT22;52812;48.960;9.108;2023-01-10T13:03:05;7.50;99.90
3086;DHT22;52812;48.960;9.108;2023-01-10T13:05:33;7.60;99.90
3086;DHT22;52812;48.960;9.108;2023-01-10T13:08:03;7.60;99.90
3086;DHT22;52812;48.960;9.108;2023-01-10T13:10:31;7.60;99.90
3086;DHT22;52812;48.960;9.108;2023-01-10T13:13:25;7.50;99.90
3086;DHT22;52812;48.960;9.108;2023-01-10T13:16:27;7.50;99.90
3086;DHT22;52812;48.960;9.108;2023-01-10T13:21:39;7.80;99.90
3086;DHT22;52812;48.960;9.108;2023-01-10T13:27:01;7.90;99.90
3086;DHT22;52812;48.960;9.108;2023-01-10T13:29:38;7.90;99.90
3086;DHT22;52812;48.960;9.108;2023-01-10T13:32:24;7.90;99.90
3086;DHT22;52812;48.960;9.108;2023-01-10T13:34:51;7.80;99.90
3086;DHT22;52812;48.960;9.108;2023-01-10T13:37:29;7.90;99.90
3086;DHT22;52812;48.960;9.108;2023-01-10T13:39:58;7.80;99.90
3086;DHT22;52812;48.960;9.108;2023-01-10T13:45:29;7.80;99.90
3086;DHT22;52812;48.960;9.108;2023-01-10T13:47:56;7.80;99.90
3086;DHT22;52812;48.960;9.108;2023-01-10T14:00:54;7.70;99.90
3086;DHT22;52812;48.960;9.108;2023-01-10T14:08:38;7.70;99.90
3086;DHT22;52812;48.960;9.108;2023-01-10T14:11:10;7.70;99.90
3086;DHT22;52812;48.960;9.108;2023-01-10T14:13:36;7.70;99.90
3086;DHT22;52812;48.960;9.108;2023-01-10T14:16:03;7.70;99.90
3086;DHT22;52812;48.960;9.108;2023-01-10T14:18:36;7.60;99.90
3086;DHT22;52812;48.960;9.108;2023-01-10T14:21:09;7.60;99.90
3086;DHT22;52812;48.960;9.108;2023-01-10T14:23:50;7.50;99.90
3086;DHT22;52812;48.960;9.108;2023-01-10T14:26:31;7.40;99.90
3086;DHT22;52812;48.960;9.108;2023-01-10T14:28:59;7.30;99.90
3086;DHT22;52812;48.960;9.108;2023-01-10T14:31:27;7.30;99.90
3086;DHT22;52812;48.960;9.108;2023-01-10T14:33:53;7.20;99.90
3086;DHT22;52812;48.960;9.108;2023-01-10T14:36:32;7.10;99.90
3086;DHT22;52812;48.960;9.108;2023-01-10T14:39:04;7.10;99.90
3086;DHT22;52812;48.960;9.108;2023-01-10T14:41:40;7.00;99.90
3086;DHT22;52812;48.960;9.108;2023-01-10T14:44:23;6.90;99.90
3086;DHT22;52812;48.960;9.108;2023-01-10T14:46:55;6.80;99.90
3086;DHT22;52812;48.960;9.108;2023-01-10T14:49:25;6.80;99.90
3086;DHT22;52812;48.960;9.108;2023-01-10T14:51:56;6.70;99.90
3086;DHT22;52812;48.960;9.108;2023-01-10T14:54:35;6.70;99.90
3086;DHT22;52812;48.960;9.108;2023-01-10T14:57:01;6.60;99.90
3086;DHT22;52812;48.960;9.108;2023-01-10T14:59:32;6.60;99.90
3086;DHT22;52812;48.960;9.108;2023-01-10T15:02:21;6.50;99.90
3086;DHT22;52812;48.960;9.108;2023-01-10T15:07:34;6.40;99.90
3086;DHT22;52812;48.960;9.108;2023-01-10T15:10:01;6.40;99.90
3086;DHT22;52812;48.960;9.108;2023-01-10T15:12:33;6.30;99.90
3086;DHT22;52812;48.960;9.108;2023-01-10T15:15:05;6.20;99.90
3086;DHT22;52812;48.960;9.108;2023-01-10T15:17:33;6.20;99.90
3086;DHT22;52812;48.960;9.108;2023-01-10T15:20:00;6.10;99.90
3086;DHT22;52812;48.960;9.108;2023-01-10T15:22:31;6.10;99.90
3086;DHT22;52812;48.960;9.108;2023-01-10T15:25:03;6.10;99.90
3086;DHT22;52812;48.960;9.108;2023-01-10T15:27:30;6.00;99.90
3086;DHT22;52812;48.960;9.108;2023-01-10T15:29:57;6.00;99.90
3086;DHT22;52812;48.960;9.108;2023-01-10T15:32:34;6.00;99.90
3086;DHT22;52812;48.960;9.108;2023-01-10T15:35:03;6.00;99.90
3086;DHT22;52812;48.960;9.108;2023-01-10T15:37:35;5.90;99.90
3086;DHT22;52812;48.960;9.108;2023-01-10T15:40:04;5.90;99.90
3086;DHT22;52812;48.960;9.108;2023-01-10T15:42:30;5.80;99.90
3086;DHT22;52812;48.960;9.108;2023-01-10T15:44:56;5.80;99.90
3086;DHT22;52812;48.960;9.108;2023-01-10T15:47:41;5.80;99.90
3086;DHT22;52812;48.960;9.108;2023-01-10T15:50:22;5.70;99.90
3086;DHT22;52812;48.960;9.108;2023-01-10T15:58:01;5.70;99.90
3086;DHT22;52812;48.960;9.108;2023-01-10T16:00:27;5.70;99.90
3086;DHT22;52812;48.960;9.108;2023-01-10T16:02:54;5.60;99.90
3086;DHT22;52812;48.960;9.108;2023-01-10T16:05:21;5.60;99.90
3086;DHT22;52812;48.960;9.108;2023-01-10T16:07:48;5.50;99.90
3086;DHT22;52812;48.960;9.108;2023-01-10T16:10:25;5.60;99.90
3086;DHT22;52812;48.960;9.108;2023-01-10T16:12:51;5.50;99.90
3086;DHT22;52812;48.960;9.108;2023-01-10T16:15:39;5.40;99.90
3086;DHT22;52812;48.960;9.108;2023-01-10T16:18:05;5.40;99.90
3086;DHT22;52812;48.960;9.108;2023-01-10T16:20:39;5.30;99.90
3086;DHT22;52812;48.960;9.108;2023-01-10T16:23:09;5.30;99.90
3086;DHT22;52812;48.960;9.108;2023-01-10T16:25:38;5.30;99.90
3086;DHT22;52812;48.960;9.108;2023-01-10T16:28:05;5.30;99.90
3086;DHT22;52812;48.960;9.108;2023-01-10T16:30:32;5.20;99.90
3086;DHT22;52812;48.960;9.108;2023-01-10T16:33:01;5.20;99.90
3086;DHT22;52812;48.960;9.108;2023-01-10T16:35:33;5.10;99.90
3086;DHT22;52812;48.960;9.108;2023-01-10T16:37:58;5.10;99.90
3086;DHT22;52812;48.960;9.108;2023-01-10T16:40:39;5.10;99.90
3086;DHT22;52812;48.960;9.108;2023-01-10T16:43:05;5.10;99.90
3086;DHT22;52812;48.960;9.108;2023-01-10T16:45:48;5.10;99.90
3086;DHT22;52812;48.960;9.108;2023-01-10T16:48:15;5.20;99.90
3086;DHT22;52812;48.960;9.108;2023-01-10T16:50:41;5.20;99.90
3086;DHT22;52812;48.960;9.108;2023-01-10T16:53:12;5.20;99.90
3086;DHT22;52812;48.960;9.108;2023-01-10T16:58:11;5.20;99.90
3086;DHT22;52812;48.960;9.108;2023-01-10T17:00:38;5.10;99.90
3086;DHT22;52812;48.960;9.108;2023-01-10T17:03:24;5.20;99.90
3086;DHT22;52812;48.960;9.108;2023-01-10T17:05:51;5.20;99.90
3086;DHT22;52812;48.960;9.108;2023-01-10T17:08:19;5.20;99.90
3086;DHT22;52812;48.960;9.108;2023-01-10T17:10:47;5.20;99.90
3086;DHT22;52812;48.960;9.108;2023-01-10T17:13:16;5.20;99.90
3086;DHT22;52812;48.960;9.108;2023-01-10T17:15:43;5.20;99.90
3086;DHT22;52812;48.960;9.108;2023-01-10T17:18:09;5.10;99.90
3086;DHT22;52812;48.960;9.108;2023-01-10T17:20:35;5.10;99.90
3086;DHT22;52812;48.960;9.108;2023-01-10T17:23:00;5.10;99.90
3086;DHT22;52812;48.960;9.108;2023-01-10T17:25:26;5.10;99.90
3086;DHT22;52812;48.960;9.108;2023-01-10T17:27:52;5.10;99.90
3086;DHT22;52812;48.960;9.108;2023-01-10T17:30:17;5.10;99.90
3086;DHT22;52812;48.960;9.108;2023-01-10T17:32:44;5.10;99.90
3086;DHT22;52812;48.960;9.108;2023-01-10T17:35:10;5.20;99.90
3086;DHT22;52812;48.960;9.108;2023-01-10T17:37:35;5.20;99.90
3086;DHT22;52812;48.960;9.108;2023-01-10T17:40:02;5.30;99.90
3086;DHT22;52812;48.960;9.108;2023-01-10T17:42:28;5.30;99.90
3086;DHT22;52812;48.960;9.108;2023-01-10T17:44:54;5.30;99.90
3086;DHT22;52812;48.960;9.108;2023-01-10T17:47:20;5.30;99.90
3086;DHT22;52812;48.960;9.108;2023-01-10T17:49:45;5.30;99.90
3086;DHT22;52812;48.960;9.108;2023-01-10T17:52:11;5.30;99.90
3086;DHT22;52812;48.960;9.108;2023-01-10T17:54:37;5.30;99.90
3086;DHT22;52812;48.960;9.108;2023-01-10T17:57:03;5.30;99.90
3086;DHT22;52812;48.960;9.108;2023-01-10T17:59:29;5.20;99.90
3086;DHT22;52812;48.960;9.108;2023-01-10T18:01:55;5.20;99.90
3086;DHT22;52812;48.960;9.108;2023-01-10T18:04:20;5.20;99.90
3086;DHT22;52812;48.960;9.108;2023-01-10T18:06:46;5.20;99.90
3086;DHT22;52812;48.960;9.108;2023-01-10T18:09:12;5.20;99.90
3086;DHT22;52812;48.960;9.108;2023-01-10T18:11:37;5.20;99.90
3086;DHT22;52812;48.960;9.108;2023-01-10T18:14:03;5.20;99.90
3086;DHT22;52812;48.960;9.108;2023-01-10T18:16:48;5.20;99.90
3086;DHT22;52812;48.960;9.108;2023-01-10T18:19:14;5.30;99.90
3086;DHT22;52812;48.960;9.108;2023-01-10T18:21:39;5.40;99.90
3086;DHT22;52812;48.960;9.108;2023-01-10T18:24:05;5.40;99.90
3086;DHT22;52812;48.960;9.108;2023-01-10T18:26:31;5.40;99.90
3086;DHT22;52812;48.960;9.108;2023-01-10T18:28:57;5.50;99.90